Terminal Aerodrome Forecast
Issued by NWS Jacksonville, FL

Home | Current Version | Previous Version | Text Only | Print | Product List | Glossary On
Versions: 1 2 3 4 5 6 7 8 9 10 11 12 13 14 15 16 17 18 19 20 21
898
FTUS42 KJAX 211734
TAFJAX
TAF
KJAX 211734Z 2118/2218 07015G20KT P6SM BKN040 BKN250
     FM212300 05006KT P6SM BKN035
     FM221500 10012KT P6SM BKN040=

USA.gov is the U.S. government's official web portal to all federal, state and local government web resources and services.